Time;durP1;ratioP1;P1;durP2;ratioP2;P2;SDS_P1;SDS_P2;PMS_P1;PMS_P2;Temp;Humidity;BMP_temperature;BMP_pressure;BME280_temperature;BME280_humidity;BME280_pressure;Samples;Min_cycle;Max_cycle;Signal;HPM_P1;HPM_P2
2021/12/05 00:22:41;;;;;;;63.33;34.88;;;-0.80;99.90;;;;;;5080747;28;20040;-87
2021/12/05 00:25:14;;;;;;;65.47;35.50;;;-0.90;99.90;;;;;;5084291;28;20051;-88
2021/12/05 00:27:51;;;;;;;68.07;36.78;;;-0.90;99.90;;;;;;5067246;28;20044;-85
2021/12/05 01:02:44;;;;;;;74.25;39.80;;;-1.00;99.90;;;;;;5103203;27;20043;-85
2021/12/05 01:05:34;;;;;;;70.28;37.58;;;-1.00;99.90;;;;;;5097605;27;20518;-86
2021/12/05 01:08:13;;;;;;;69.57;38.15;;;-1.00;99.90;;;;;;5100207;27;20039;-85
2021/12/05 01:14:32;;;;;;;70.70;39.05;;;-1.00;99.90;;;;;;5128441;27;20040;-86
2021/12/05 01:16:22;;;;;;;70.20;38.10;;;-1.10;99.90;;;;;;5106592;27;20065;-85
2021/12/05 01:18:49;;;;;;;74.28;39.65;;;-1.10;99.90;;;;;;5114972;27;20091;-82
2021/12/05 01:21:19;;;;;;;76.72;40.28;;;-1.00;99.90;;;;;;5102395;27;20080;-81
2021/12/05 01:26:29;;;;;;;64.75;37.25;;;-1.10;99.90;;;;;;5124763;27;20043;-82
2021/12/05 01:36:41;;;;;;;77.22;40.25;;;-1.10;99.90;;;;;;5111222;27;20403;-83
2021/12/05 01:47:33;;;;;;;74.60;39.97;;;-1.10;99.90;;;;;;5132587;27;20043;-81
2021/12/05 02:36:39;;;;;;;78.43;41.97;;;-1.40;99.90;;;;;;5036283;28;20032;-81
2021/12/05 02:39:25;;;;;;;75.43;40.20;;;-1.40;99.90;;;;;;5064730;28;20032;-83
2021/12/05 02:41:53;;;;;;;79.93;40.60;;;-1.40;99.90;;;;;;5064797;28;20445;-83
2021/12/05 02:44:23;;;;;;;77.87;41.73;;;-1.40;99.90;;;;;;5048354;28;20036;-84
2021/12/05 02:47:02;;;;;;;76.65;40.45;;;-1.40;99.90;;;;;;5084652;27;20788;-84
2021/12/05 02:49:31;;;;;;;75.13;41.83;;;-1.30;99.90;;;;;;5121133;27;20110;-81
2021/12/05 02:52:04;;;;;;;75.05;41.90;;;-1.40;99.90;;;;;;5124283;27;20087;-80
2021/12/05 02:54:38;;;;;;;78.43;39.38;;;-1.40;99.90;;;;;;5147762;27;20139;-80
2021/12/05 02:57:05;;;;;;;75.30;39.90;;;-1.40;99.90;;;;;;5139292;27;20053;-80
2021/12/05 03:02:15;;;;;;;86.55;45.47;;;-1.30;99.90;;;;;;5138787;27;20058;-80
2021/12/05 03:04:45;;;;;;;78.05;41.83;;;-1.30;99.90;;;;;;5122994;27;20069;-80
2021/12/05 03:07:18;;;;;;;76.88;40.83;;;-1.30;99.90;;;;;;5131437;27;20043;-81
2021/12/05 03:09:45;;;;;;;72.80;40.15;;;-1.30;99.90;;;;;;5141213;27;20031;-82
2021/12/05 03:12:17;;;;;;;74.45;41.10;;;-1.30;99.90;;;;;;5114290;27;20118;-82
2021/12/05 03:14:45;;;;;;;78.75;41.33;;;-1.30;99.90;;;;;;5119383;27;20054;-82
2021/12/05 03:17:11;;;;;;;76.50;41.40;;;-1.30;99.90;;;;;;5110816;27;20406;-81
2021/12/05 03:19:38;;;;;;;79.43;40.75;;;-1.30;99.90;;;;;;5138024;27;20044;-78
2021/12/05 03:22:04;;;;;;;74.35;41.58;;;-1.30;99.90;;;;;;5118282;27;20038;-80
2021/12/05 03:24:31;;;;;;;74.55;38.83;;;-1.30;99.90;;;;;;5097260;28;20131;-81
2021/12/05 03:26:58;;;;;;;74.20;40.40;;;-1.30;99.90;;;;;;5116349;27;20084;-81
2021/12/05 03:29:24;;;;;;;70.38;38.78;;;-1.30;99.90;;;;;;5108868;27;20039;-80
2021/12/05 03:31:54;;;;;;;73.03;39.50;;;-1.30;99.90;;;;;;5104267;27;20395;-80
2021/12/05 03:34:21;;;;;;;73.10;39.25;;;-1.30;99.90;;;;;;5110698;27;20110;-81
2021/12/05 03:36:50;;;;;;;77.18;38.47;;;-1.30;99.90;;;;;;5127680;27;20400;-81
2021/12/05 03:39:17;;;;;;;82.03;41.15;;;-1.40;99.90;;;;;;5107013;27;20037;-81
2021/12/05 03:41:44;;;;;;;79.75;41.58;;;-1.40;99.90;;;;;;5129909;27;20731;-80
2021/12/05 03:44:15;;;;;;;78.00;41.22;;;-1.40;99.90;;;;;;5106150;27;20054;-81
2021/12/05 03:46:42;;;;;;;73.88;39.67;;;-1.40;99.90;;;;;;5113868;27;20044;-80
2021/12/05 03:49:12;;;;;;;79.72;41.80;;;-1.40;99.90;;;;;;5125813;27;20091;-83
2021/12/05 03:51:43;;;;;;;74.97;39.47;;;-1.40;99.90;;;;;;5126219;27;20055;-81
2021/12/05 03:54:10;;;;;;;75.70;39.85;;;-1.40;99.90;;;;;;5135095;27;20031;-82
2021/12/05 03:56:37;;;;;;;73.38;40.20;;;-1.40;99.90;;;;;;5109170;27;20154;-81
2021/12/05 03:59:05;;;;;;;77.47;41.20;;;-1.40;99.90;;;;;;5110545;27;20034;-83
2021/12/05 04:01:31;;;;;;;74.80;39.97;;;-1.40;99.90;;;;;;5105307;27;20647;-81
2021/12/05 04:07:39;;;;;;;73.78;39.50;;;-1.40;99.90;;;;;;5128078;27;20066;-81
2021/12/05 04:10:07;;;;;;;77.30;40.05;;;-1.40;99.90;;;;;;5121322;27;20039;-82
2021/12/05 04:12:33;;;;;;;73.88;39.70;;;-1.40;99.90;;;;;;5129107;27;20379;-81
2021/12/05 04:15:00;;;;;;;73.15;39.63;;;-1.40;99.90;;;;;;5121400;27;20034;-81
2021/12/05 04:17:26;;;;;;;71.80;39.33;;;-1.40;99.90;;;;;;5126337;27;20110;-80
2021/12/05 04:19:53;;;;;;;81.30;41.42;;;-1.40;99.90;;;;;;5120052;27;20035;-80
2021/12/05 04:22:19;;;;;;;74.65;39.67;;;-1.40;99.90;;;;;;5126983;27;20118;-81
2021/12/05 04:24:47;;;;;;;70.60;38.92;;;-1.30;99.90;;;;;;5115253;27;20035;-81
2021/12/05 04:27:14;;;;;;;68.07;38.10;;;-1.30;99.90;;;;;;5139404;27;20042;-81
2021/12/05 04:29:40;;;;;;;76.20;40.58;;;-1.30;99.90;;;;;;5117982;27;20055;-80
2021/12/05 04:32:07;;;;;;;75.88;40.63;;;-1.30;99.90;;;;;;5130885;27;20519;-79
2021/12/05 04:34:33;;;;;;;74.38;41.58;;;-1.40;99.90;;;;;;5123509;27;20159;-79
2021/12/05 04:37:00;;;;;;;71.90;39.97;;;-1.40;99.90;;;;;;5105405;27;20039;-81
2021/12/05 04:39:27;;;;;;;75.95;41.45;;;-1.40;99.90;;;;;;5128141;27;20428;-80
2021/12/05 04:41:54;;;;;;;75.22;41.92;;;-1.40;99.90;;;;;;5134905;27;20070;-81
2021/12/05 04:44:22;;;;;;;75.63;39.95;;;-1.30;99.90;;;;;;5100867;27;20108;-80
2021/12/05 04:46:49;;;;;;;74.45;40.03;;;-1.30;99.90;;;;;;5134709;27;20092;-81
2021/12/05 04:49:16;;;;;;;81.70;42.63;;;-1.30;99.90;;;;;;5134053;27;20083;-80
2021/12/05 04:51:44;;;;;;;76.60;41.92;;;-1.20;99.90;;;;;;5116100;27;20047;-80
2021/12/05 04:54:14;;;;;;;74.20;42.87;;;-1.20;99.90;;;;;;5094527;27;20034;-80
2021/12/05 04:56:41;;;;;;;77.72;42.08;;;-1.20;99.90;;;;;;5144883;27;20292;-80
2021/12/05 04:59:14;;;;;;;80.80;41.58;;;-1.20;99.90;;;;;;5079694;27;20045;-82
2021/12/05 05:01:42;;;;;;;76.20;41.40;;;-1.20;99.90;;;;;;5102114;27;20046;-80
2021/12/05 05:04:21;;;;;;;81.07;41.35;;;-1.20;99.90;;;;;;5096213;27;20055;-80
2021/12/05 05:06:48;;;;;;;76.93;41.15;;;-1.20;99.90;;;;;;5103811;27;20035;-81
2021/12/05 05:09:14;;;;;;;81.85;42.95;;;-1.10;99.90;;;;;;5119381;27;20039;-80
2021/12/05 05:11:41;;;;;;;77.22;41.90;;;-1.20;99.90;;;;;;5116559;27;20083;-81
2021/12/05 05:14:09;;;;;;;77.78;41.03;;;-1.20;99.90;;;;;;5116914;27;20041;-82
2021/12/05 05:16:36;;;;;;;73.80;40.43;;;-1.10;99.90;;;;;;5114580;27;20788;-83
2021/12/05 05:19:03;;;;;;;73.25;42.33;;;-1.10;99.90;;;;;;5116063;27;20188;-83
2021/12/05 05:50:15;;;;;;;84.30;42.80;;;-0.90;99.90;;;;;;5123930;27;20134;-83
2021/12/05 05:52:42;;;;;;;79.53;43.60;;;-0.90;99.90;;;;;;5135537;27;20118;-84
2021/12/05 05:55:10;;;;;;;82.00;41.63;;;-0.90;99.90;;;;;;5113423;27;20043;-83
2021/12/05 05:57:57;;;;;;;76.27;41.43;;;-0.90;99.90;;;;;;5118305;27;20039;-83
2021/12/05 06:00:35;;;;;;;83.82;42.65;;;-0.90;99.90;;;;;;5086103;27;20362;-85
2021/12/05 06:03:21;;;;;;;83.18;41.25;;;-0.80;99.90;;;;;;5125633;27;20070;-84
2021/12/05 06:06:01;;;;;;;79.18;42.50;;;-0.80;99.90;;;;;;5112970;27;20046;-82
2021/12/05 06:08:30;;;;;;;76.45;41.30;;;-0.80;99.90;;;;;;5127508;27;20035;-82
2021/12/05 06:10:59;;;;;;;72.15;39.85;;;-0.80;99.90;;;;;;5118410;27;20108;-82
2021/12/05 06:13:27;;;;;;;72.30;40.90;;;-0.70;99.90;;;;;;5145386;27;20102;-81
2021/12/05 06:15:53;;;;;;;77.80;43.30;;;-0.70;99.90;;;;;;5115406;27;20101;-79
2021/12/05 06:18:20;;;;;;;78.13;40.67;;;-0.70;99.90;;;;;;5113998;27;20043;-82
2021/12/05 06:20:48;;;;;;;72.97;42.17;;;-0.70;99.90;;;;;;5104496;27;20066;-82
2021/12/05 06:23:15;;;;;;;71.03;39.58;;;-0.70;99.90;;;;;;5147917;27;20100;-81
2021/12/05 06:25:44;;;;;;;73.85;40.05;;;-0.60;99.90;;;;;;5126241;27;20395;-81
2021/12/05 06:28:17;;;;;;;78.95;40.13;;;-0.60;99.90;;;;;;5129875;27;20035;-81
2021/12/05 06:31:43;;;;;;;73.25;39.08;;;-0.60;99.90;;;;;;5132421;27;20046;-79
2021/12/05 06:39:25;;;;;;;79.05;40.08;;;-0.60;99.90;;;;;;5094541;27;20806;-84
2021/12/05 06:42:03;;;;;;;72.32;39.25;;;-0.60;99.90;;;;;;5116052;27;20050;-83
2021/12/05 06:47:20;;;;;;;75.65;39.65;;;-0.60;99.90;;;;;;5125396;27;20035;-82
2021/12/05 06:49:47;;;;;;;72.43;39.58;;;-0.50;99.90;;;;;;5127325;27;20536;-82
2021/12/05 06:52:13;;;;;;;67.38;37.33;;;-0.50;99.90;;;;;;5051050;27;20402;-80
2021/12/05 06:54:40;;;;;;;74.70;39.03;;;-0.50;99.90;;;;;;5095620;27;20383;-81
2021/12/05 06:57:07;;;;;;;68.93;37.88;;;-0.50;99.90;;;;;;5150038;27;20026;-81
2021/12/05 06:59:38;;;;;;;73.70;38.00;;;-0.50;99.90;;;;;;5106026;27;20047;-79
2021/12/05 07:02:04;;;;;;;74.07;40.22;;;-0.50;99.90;;;;;;5130547;27;20051;-80
2021/12/05 07:07:33;;;;;;;;;;;-0.40;99.90;;;;;;5088023;27;20348;-80
2021/12/05 07:10:00;;;;;;;;;;;-0.40;99.90;;;;;;5143504;27;19968;-82
2021/12/05 07:15:04;;;;;;;;;;;-0.30;99.90;;;;;;5124217;27;21993;-83
2021/12/05 07:20:45;;;;;;;;;;;-0.20;99.90;;;;;;5120701;27;20275;-81
2021/12/05 07:25:47;;;;;;;;;;;-0.20;99.90;;;;;;5139463;27;19923;-78
2021/12/05 07:42:06;;;;;;;;;;;-0.10;99.90;;;;;;5126264;27;19927;-79
2021/12/05 07:44:32;;;;;;;;;;;0.00;99.90;;;;;;5104365;28;19915;-79
2021/12/05 07:46:59;;;;;;;;;;;0.00;99.80;;;;;;5132614;27;19923;-78
2021/12/05 07:49:25;;;;;;;;;;;0.00;99.70;;;;;;5110371;27;19915;-77
2021/12/05 07:51:51;;;;;;;;;;;0.00;99.60;;;;;;5119726;27;19926;-78
2021/12/05 07:57:01;;;;;;;;;;;0.10;99.30;;;;;;5113860;28;20013;-78
2021/12/05 08:18:46;;;;;;;;;;;0.30;98.30;;;;;;5094648;27;20360;-78
2021/12/05 08:21:16;;;;;;;;;;;0.30;98.20;;;;;;5113875;27;19974;-80
2021/12/05 08:23:45;;;;;;;;;;;0.30;98.10;;;;;;5122494;27;19991;-77
2021/12/05 08:26:17;;;;;;;;;;;0.30;97.90;;;;;;5096667;27;19976;-80
2021/12/05 09:28:32;;;;;;;;;;;1.00;96.30;;;;;;5124079;27;20243;-80
2021/12/05 10:07:14;;;;;;;;;;;1.30;95.50;;;;;;5075896;28;20502;-76
2021/12/05 10:37:15;;;;;;;;;;;1.60;95.20;;;;;;5039510;28;19948;-79
2021/12/05 10:39:41;;;;;;;;;;;1.60;95.00;;;;;;4998831;28;19929;-77
2021/12/05 10:42:37;;;;;;;;;;;1.70;94.90;;;;;;5002406;28;20357;-79
2021/12/05 10:45:11;;;;;;;;;;;1.60;94.90;;;;;;5036298;28;19932;-79
2021/12/05 10:47:38;;;;;;;;;;;1.70;94.90;;;;;;5022293;28;20010;-81
2021/12/05 10:50:23;;;;;;;;;;;1.70;94.60;;;;;;5011764;28;20067;-79
2021/12/05 10:53:09;;;;;;;;;;;1.70;94.60;;;;;;5138405;27;20371;-78
2021/12/05 10:55:35;;;;;;;;;;;1.70;94.50;;;;;;5148095;27;19919;-78
2021/12/05 10:58:05;;;;;;;;;;;1.70;94.40;;;;;;5149795;27;19947;-78
2021/12/05 11:00:31;;;;;;;;;;;1.70;94.40;;;;;;5143331;27;19958;-79
2021/12/05 11:03:17;;;;;;;;;;;1.60;94.40;;;;;;5144979;27;19931;-78
2021/12/05 11:05:44;;;;;;;;;;;1.60;94.40;;;;;;5137315;27;19927;-78
2021/12/05 11:08:29;;;;;;;;;;;1.60;94.50;;;;;;5142335;27;19915;-80
2021/12/05 11:11:14;;;;;;;;;;;1.60;94.60;;;;;;5159853;27;19909;-81
2021/12/05 11:13:43;;;;;;;;;;;1.60;94.70;;;;;;5100128;27;20381;-79
2021/12/05 11:16:29;;;;;;;;;;;1.60;94.90;;;;;;5117117;27;20002;-82
2021/12/05 11:18:55;;;;;;;;;;;1.50;95.00;;;;;;5114250;27;19942;-81
2021/12/05 11:21:25;;;;;;;;;;;1.50;95.40;;;;;;5105854;27;20630;-80
2021/12/05 11:24:10;;;;;;;;;;;1.50;95.80;;;;;;5106243;27;20286;-81
2021/12/05 11:26:39;;;;;;;;;;;1.40;96.30;;;;;;5112337;27;19941;-81
2021/12/05 11:29:05;;;;;;;;;;;1.50;96.80;;;;;;5115657;27;20006;-80
2021/12/05 11:31:32;;;;;;;;;;;1.40;97.10;;;;;;5132213;27;19991;-81
2021/12/05 11:33:59;;;;;;;;;;;1.40;97.30;;;;;;5149810;27;19922;-80
2021/12/05 11:36:27;;;;;;;;;;;1.50;97.50;;;;;;5105995;27;19986;-80
2021/12/05 11:38:53;;;;;;;;;;;1.40;97.70;;;;;;5140776;27;19919;-79
2021/12/05 11:41:20;;;;;;;;;;;1.40;97.90;;;;;;5126904;27;19964;-83
2021/12/05 11:43:47;;;;;;;;;;;1.40;98.10;;;;;;5113363;27;20314;-83
2021/12/05 11:46:15;;;;;;;;;;;1.40;98.40;;;;;;5098208;27;19958;-85
2021/12/05 11:48:42;;;;;;;;;;;1.30;98.50;;;;;;5114404;27;20437;-84
2021/12/05 11:51:19;;;;;;;;;;;1.30;98.70;;;;;;5121695;27;20143;-85
2021/12/05 11:53:48;;;;;;;;;;;1.20;98.80;;;;;;5102724;27;19926;-85
2021/12/05 11:56:23;;;;;;;;;;;1.20;99.00;;;;;;5122243;27;19922;-86
2021/12/05 11:59:04;;;;;;;;;;;1.20;99.30;;;;;;5111581;27;19926;-84
2021/12/05 12:01:40;;;;;;;;;;;1.20;99.50;;;;;;5128569;28;19923;-79
2021/12/05 12:04:07;;;;;;;;;;;1.20;99.70;;;;;;5135690;27;20571;-85
2021/12/05 12:06:33;;;;;;;;;;;1.20;99.80;;;;;;5138396;27;19923;-79
2021/12/05 12:08:59;;;;;;;;;;;1.10;99.80;;;;;;5125910;27;20366;-82
2021/12/05 12:11:26;;;;;;;;;;;1.10;99.90;;;;;;5114765;27;19927;-84
2021/12/05 12:13:53;;;;;;;;;;;1.00;99.90;;;;;;5101225;27;19925;-81
2021/12/05 12:16:21;;;;;;;;;;;1.00;99.90;;;;;;5133064;27;19959;-85
2021/12/05 12:18:50;;;;;;;;;;;1.00;99.90;;;;;;5130108;27;19979;-87
2021/12/05 12:21:18;;;;;;;;;;;0.90;99.90;;;;;;5098384;27;20464;-84
2021/12/05 12:23:44;;;;;;;;;;;0.90;99.90;;;;;;5132069;27;19919;-82
2021/12/05 12:26:11;;;;;;;;;;;0.90;99.90;;;;;;5145569;27;19920;-83
2021/12/05 12:28:37;;;;;;;;;;;0.90;99.90;;;;;;5125781;27;19938;-81
2021/12/05 12:31:05;;;;;;;;;;;0.90;99.90;;;;;;5103917;27;20007;-82
2021/12/05 12:33:34;;;;;;;;;;;0.80;99.90;;;;;;5119887;27;20134;-82
2021/12/05 12:36:00;;;;;;;;;;;0.80;99.90;;;;;;5146861;27;19966;-85
2021/12/05 12:38:30;;;;;;;;;;;0.80;99.90;;;;;;5129191;27;19998;-83
2021/12/05 12:40:58;;;;;;;;;;;0.70;99.90;;;;;;5116416;27;19919;-86
2021/12/05 12:43:37;;;;;;;;;;;0.70;99.90;;;;;;5116367;27;19925;-84
2021/12/05 12:46:21;;;;;;;;;;;0.80;99.90;;;;;;5155642;27;19919;-86
2021/12/05 12:48:48;;;;;;;;;;;0.70;99.90;;;;;;5132192;27;20275;-85
2021/12/05 12:51:32;;;;;;;;;;;0.70;99.90;;;;;;5133290;27;19919;-85
2021/12/05 12:54:03;;;;;;;;;;;0.60;99.90;;;;;;5108313;27;20382;-80
2021/12/05 12:56:30;;;;;;;;;;;0.60;99.90;;;;;;5132802;27;19949;-83
2021/12/05 12:59:01;;;;;;;;;;;0.60;99.90;;;;;;5150488;27;20002;-80
2021/12/05 13:01:41;;;;;;;;;;;0.60;99.90;;;;;;5152562;27;19915;-80
2021/12/05 13:12:45;;;;;;;;;;;0.50;99.90;;;;;;5146931;27;19915;-82
2021/12/05 13:15:17;;;;;;;;;;;0.50;99.90;;;;;;5134170;27;19922;-84
2021/12/05 13:17:46;;;;;;;;;;;0.50;99.90;;;;;;5136029;27;20562;-81
2021/12/05 13:20:14;;;;;;;;;;;0.50;99.90;;;;;;5149099;27;20002;-85
2021/12/05 13:23:03;;;;;;;;;;;0.50;99.90;;;;;;5123869;27;21625;-82
2021/12/05 13:25:30;;;;;;;;;;;0.50;99.90;;;;;;5094818;27;19957;-82
2021/12/05 13:27:57;;;;;;;;;;;0.50;99.90;;;;;;5130685;27;19927;-83
2021/12/05 13:30:30;;;;;;;;;;;0.50;99.90;;;;;;5115842;27;20400;-77
2021/12/05 13:33:16;;;;;;;;;;;0.50;99.90;;;;;;5135869;27;20025;-83
2021/12/05 13:35:43;;;;;;;;;;;0.50;99.90;;;;;;5121597;27;20347;-88
2021/12/05 13:38:40;;;;;;;;;;;0.50;99.90;;;;;;5130898;27;19915;-80
2021/12/05 13:41:16;;;;;;;;;;;0.50;99.90;;;;;;5100348;27;20438;-79
2021/12/05 13:44:03;;;;;;;;;;;0.60;99.90;;;;;;5129214;27;19922;-80
2021/12/05 13:46:37;;;;;;;;;;;0.50;99.90;;;;;;5136561;27;19946;-80
2021/12/05 13:49:23;;;;;;;;;;;0.60;99.90;;;;;;5107438;27;19934;-82
2021/12/05 13:51:49;;;;;;;;;;;0.60;99.90;;;;;;5133135;27;20402;-80
2021/12/05 13:54:24;;;;;;;;;;;0.60;99.90;;;;;;5121077;27;19915;-81
2021/12/05 13:57:07;;;;;;;;;;;0.60;99.90;;;;;;5106735;27;19963;-82
2021/12/05 13:59:34;;;;;;;;;;;0.60;99.90;;;;;;5109158;27;19943;-77
2021/12/05 14:02:00;;;;;;;;;;;0.60;99.90;;;;;;5116890;27;19920;-81
2021/12/05 14:04:27;;;;;;;;;;;0.60;99.90;;;;;;5101457;27;19949;-79
2021/12/05 14:06:58;;;;;;;;;;;0.70;99.90;;;;;;5129681;27;20398;-82
2021/12/05 14:09:27;;;;;;;;;;;0.70;99.90;;;;;;5124888;27;19923;-79
2021/12/05 14:12:05;;;;;;;;;;;0.70;99.90;;;;;;5116897;27;19923;-80
2021/12/05 14:14:45;;;;;;;;;;;0.70;99.90;;;;;;5131533;27;19927;-81
2021/12/05 14:17:14;;;;;;;;;;;0.70;99.90;;;;;;5148075;27;19919;-82
2021/12/05 14:19:43;;;;;;;;;;;0.70;99.90;;;;;;5139983;27;19919;-82
2021/12/05 14:22:10;;;;;;;;;;;0.70;99.90;;;;;;5131757;27;19920;-83
2021/12/05 14:24:38;;;;;;;;;;;0.70;99.90;;;;;;5139580;27;19919;-80
2021/12/05 14:27:06;;;;;;;;;;;0.70;99.90;;;;;;5134168;27;19927;-80
2021/12/05 14:29:33;;;;;;;;;;;0.70;99.90;;;;;;5148376;27;19919;-80
2021/12/05 14:32:06;;;;;;;;;;;0.70;99.90;;;;;;5132343;27;20279;-77
2021/12/05 14:34:33;;;;;;;;;;;0.70;99.90;;;;;;5147751;27;20014;-81
2021/12/05 14:37:05;;;;;;;;;;;0.70;99.90;;;;;;5130868;27;19915;-80
2021/12/05 14:39:33;;;;;;;;;;;0.70;99.90;;;;;;5111609;27;19926;-78
2021/12/05 14:42:01;;;;;;;;;;;0.70;99.90;;;;;;5147571;27;20294;-80
2021/12/05 14:44:27;;;;;;;;;;;0.70;99.90;;;;;;5142788;27;20017;-82
2021/12/05 14:46:55;;;;;;;;;;;0.70;99.90;;;;;;5145636;27;19923;-81
2021/12/05 14:49:23;;;;;;;;;;;0.70;99.90;;;;;;5148288;27;19947;-81
2021/12/05 14:51:50;;;;;;;;;;;0.70;99.90;;;;;;5129834;27;19976;-84
2021/12/05 14:54:21;;;;;;;;;;;0.70;99.90;;;;;;5111253;27;19919;-83
2021/12/05 14:56:48;;;;;;;;;;;0.70;99.90;;;;;;5147815;27;19923;-83
2021/12/05 14:59:15;;;;;;;;;;;0.70;99.90;;;;;;5122913;27;20394;-85
2021/12/05 15:01:43;;;;;;;;;;;0.70;99.90;;;;;;5108975;27;20050;-85
2021/12/05 15:04:10;;;;;;;;;;;0.60;99.90;;;;;;5125924;27;19919;-82
2021/12/05 15:06:39;;;;;;;;;;;0.60;99.90;;;;;;5158242;27;20274;-81
2021/12/05 15:09:07;;;;;;;;;;;0.60;99.90;;;;;;5132005;27;19950;-83
2021/12/05 15:11:33;;;;;;;;;;;0.60;99.90;;;;;;5128570;27;19996;-85
2021/12/05 15:14:06;;;;;;;;;;;0.60;99.90;;;;;;5127447;27;19935;-85
2021/12/05 15:16:32;;;;;;;;;;;0.50;99.90;;;;;;5135487;27;19923;-83
2021/12/05 15:18:58;;;;;;;;;;;0.50;99.90;;;;;;5058763;27;19919;-82
2021/12/05 15:21:27;;;;;;;;;;;0.40;99.90;;;;;;5128713;27;20393;-81
2021/12/05 15:23:53;;;;;;;;;;;0.30;99.90;;;;;;5110113;27;19915;-85
2021/12/05 15:26:30;;;;;;;;;;;0.30;99.90;;;;;;5088118;27;20375;-81
2021/12/05 15:29:00;;;;;;;;;;;0.30;99.90;;;;;;5135721;27;19915;-82
2021/12/05 15:31:32;;;;;;;;;;;0.30;99.90;;;;;;5132036;27;19919;-81
2021/12/05 15:33:58;;;;;;;;;;;0.30;99.90;;;;;;5150818;27;19915;-80
2021/12/05 15:36:29;;;;;;;;;;;0.30;99.90;;;;;;5114856;27;19918;-81
2021/12/05 15:38:56;;;;;;;;;;;0.30;99.90;;;;;;5117195;27;19919;-82
2021/12/05 15:41:23;;;;;;;;;;;0.30;99.90;;;;;;5145194;27;19918;-80
2021/12/05 15:43:49;;;;;;;;;;;0.20;99.90;;;;;;5105127;27;19954;-83
2021/12/05 15:46:15;;;;;;;;;;;0.20;99.90;;;;;;5132219;27;19938;-81
2021/12/05 15:48:45;;;;;;;;;;;0.20;99.90;;;;;;5147946;27;20006;-80
2021/12/05 15:51:11;;;;;;;;;;;0.20;99.90;;;;;;5150704;27;19925;-76
2021/12/05 15:53:38;;;;;;;;;;;0.20;99.90;;;;;;5142317;27;19926;-78
2021/12/05 15:56:05;;;;;;;;;;;0.20;99.90;;;;;;5143125;27;19919;-81
2021/12/05 15:58:39;;;;;;;;;;;0.20;99.90;;;;;;5151589;27;20077;-79
2021/12/05 16:01:12;;;;;;;;;;;0.20;99.90;;;;;;5127290;27;19919;-80
2021/12/05 16:03:38;;;;;;;;;;;0.20;99.90;;;;;;5126547;27;19978;-80
2021/12/05 16:06:04;;;;;;;;;;;0.20;99.90;;;;;;5157717;27;19919;-80
2021/12/05 16:08:31;;;;;;;;;;;0.20;99.90;;;;;;5129445;27;19930;-81
2021/12/05 16:10:59;;;;;;;;;;;0.20;99.90;;;;;;5111899;27;19914;-82
2021/12/05 16:13:29;;;;;;;;;;;0.20;99.90;;;;;;5156231;27;19938;-81
2021/12/05 16:16:05;;;;;;;;;;;0.20;99.90;;;;;;5131488;27;19935;-80
2021/12/05 16:18:33;;;;;;;;;;;0.20;99.90;;;;;;5127917;27;19957;-81
2021/12/05 16:21:05;;;;;;;;;;;0.20;99.90;;;;;;5135109;27;19927;-81
2021/12/05 16:23:34;;;;;;;;;;;0.20;99.90;;;;;;5150433;27;19923;-81
2021/12/05 16:26:03;;;;;;;;;;;0.20;99.90;;;;;;5135115;27;20278;-80
2021/12/05 16:28:34;;;;;;;;;;;0.20;99.90;;;;;;5144862;27;19995;-82
2021/12/05 16:31:17;;;;;;;;;;;0.20;99.90;;;;;;5124983;27;20326;-82
2021/12/05 16:33:51;;;;;;;;;;;0.20;99.90;;;;;;5146607;27;19923;-82
2021/12/05 16:36:19;;;;;;;;;;;0.20;99.90;;;;;;5116725;27;19916;-80
2021/12/05 16:38:46;;;;;;;;;;;0.20;99.90;;;;;;5137046;27;19949;-80
2021/12/05 16:41:15;;;;;;;;;;;0.20;99.90;;;;;;5138298;27;20008;-80
2021/12/05 16:43:49;;;;;;;;;;;0.10;99.90;;;;;;5141388;27;19926;-81
2021/12/05 16:46:17;;;;;;;;;;;0.10;99.90;;;;;;5160830;27;19923;-80
2021/12/05 16:48:44;;;;;;;;;;;0.10;99.90;;;;;;5134810;27;19919;-78
2021/12/05 16:51:30;;;;;;;;;;;0.10;99.90;;;;;;5141586;27;19937;-82
2021/12/05 16:54:01;;;;;;;;;;;0.10;99.90;;;;;;5132381;27;19935;-81
2021/12/05 16:56:40;;;;;;;;;;;0.10;99.90;;;;;;5143044;27;19969;-81
2021/12/05 16:59:09;;;;;;;;;;;0.10;99.90;;;;;;5122989;27;19927;-80
2021/12/05 17:01:35;;;;;;;;;;;0.10;99.90;;;;;;5122319;27;19923;-80
2021/12/05 17:04:01;;;;;;;;;;;0.10;99.90;;;;;;5122759;27;19930;-83
2021/12/05 17:06:29;;;;;;;;;;;0.10;99.90;;;;;;5118784;27;19962;-82
2021/12/05 17:08:56;;;;;;;;;;;0.10;99.90;;;;;;5139447;27;19933;-83
2021/12/05 17:11:26;;;;;;;;;;;0.10;99.90;;;;;;5135141;27;19919;-83
2021/12/05 17:13:54;;;;;;;;;;;0.10;99.90;;;;;;5144212;27;20009;-80
2021/12/05 17:16:28;;;;;;;;;;;0.10;99.90;;;;;;5121546;27;19950;-84
2021/12/05 17:19:05;;;;;;;;;;;0.10;99.90;;;;;;5116807;27;19930;-79
2021/12/05 17:21:41;;;;;;;;;;;0.00;99.90;;;;;;5144405;27;19919;-80
2021/12/05 17:24:13;;;;;;;;;;;0.10;99.90;;;;;;5108660;27;19920;-80
2021/12/05 17:26:41;;;;;;;;;;;0.00;99.90;;;;;;5132536;27;19971;-82
2021/12/05 17:29:07;;;;;;;;;;;0.00;99.90;;;;;;5124381;27;19927;-79
2021/12/05 17:31:38;;;;;;;;;;;0.00;99.90;;;;;;5149021;27;19923;-82
2021/12/05 17:34:07;;;;;;;;;;;0.00;99.90;;;;;;5103543;27;19947;-83
2021/12/05 17:36:38;;;;;;;;;;;0.00;99.90;;;;;;5124758;27;19930;-81
2021/12/05 17:39:16;;;;;;;;;;;0.00;99.90;;;;;;5119141;27;19926;-82
2021/12/05 17:41:46;;;;;;;;;;;0.00;99.90;;;;;;5138927;27;19923;-83
2021/12/05 17:44:15;;;;;;;;;;;0.00;99.90;;;;;;5120843;27;19926;-83
2021/12/05 17:46:42;;;;;;;;;;;0.00;99.90;;;;;;5121819;27;19927;-84
2021/12/05 17:49:09;;;;;;;;;;;0.00;99.90;;;;;;5121098;27;19927;-80
2021/12/05 17:51:39;;;;;;;;;;;0.00;99.90;;;;;;5110841;27;20270;-82
2021/12/05 17:54:06;;;;;;;;;;;0.00;99.90;;;;;;5106755;27;19915;-82
2021/12/05 17:56:41;;;;;;;;;;;0.00;99.90;;;;;;5099791;27;19926;-82
2021/12/05 17:59:13;;;;;;;;;;;0.00;99.90;;;;;;5123763;27;19915;-80
2021/12/05 18:04:30;;;;;;;;;;;0.00;99.90;;;;;;5126264;27;19919;-78
2021/12/05 18:06:57;;;;;;;;;;;0.00;99.90;;;;;;5111783;27;19919;-78
2021/12/05 18:09:23;;;;;;;;;;;0.00;99.90;;;;;;5147242;27;19987;-79
2021/12/05 18:11:50;;;;;;;;;;;0.00;99.90;;;;;;5119936;27;20426;-79
2021/12/05 18:14:16;;;;;;;;;;;0.00;99.90;;;;;;5099525;27;19923;-80
2021/12/05 18:16:43;;;;;;;;;;;0.00;99.90;;;;;;5127529;27;19919;-81
2021/12/05 18:19:11;;;;;;;;;;;0.00;99.90;;;;;;5099882;27;20368;-80
2021/12/05 18:21:38;;;;;;;;;;;0.00;99.90;;;;;;5124272;27;19993;-79
2021/12/05 18:24:07;;;;;;;;;;;0.00;99.90;;;;;;5137510;27;19950;-79
2021/12/05 18:26:33;;;;;;;;;;;0.00;99.90;;;;;;5140866;27;20010;-79
2021/12/05 18:29:00;;;;;;;;;;;0.10;99.90;;;;;;5096740;27;20015;-77
2021/12/05 18:31:27;;;;;;;;;;;0.10;99.90;;;;;;5119887;27;20001;-78
2021/12/05 18:33:57;;;;;;;;;;;0.10;99.90;;;;;;5127144;27;19922;-80
2021/12/05 18:36:24;;;;;;;;;;;0.10;99.90;;;;;;5123024;27;19934;-80
2021/12/05 18:38:51;;;;;;;;;;;0.20;99.90;;;;;;5142805;27;19915;-80
2021/12/05 18:41:18;;;;;;;;;;;0.20;99.90;;;;;;5125395;27;20370;-81
2021/12/05 18:43:45;;;;;;;;;;;0.20;99.90;;;;;;5134003;27;19923;-81
2021/12/05 18:46:11;;;;;;;;;;;0.20;99.90;;;;;;5139571;27;19920;-80
2021/12/05 18:48:37;;;;;;;;;;;0.30;99.90;;;;;;5131106;27;19929;-79
2021/12/05 18:51:04;;;;;;;;;;;0.30;99.90;;;;;;5163780;27;19923;-80
2021/12/05 18:53:30;;;;;;;;;;;0.30;99.90;;;;;;5120060;27;19995;-77
2021/12/05 18:55:56;;;;;;;;;;;0.30;99.90;;;;;;5130396;27;20408;-78
2021/12/05 18:58:24;;;;;;;;;;;0.30;99.90;;;;;;5132899;27;20323;-81
2021/12/05 19:06:29;;;;;;;;;;;0.30;99.90;;;;;;5123861;27;20251;-81
2021/12/05 19:14:06;;;;;;;;;;;0.40;99.90;;;;;;5144417;27;19919;-80
2021/12/05 19:16:32;;;;;;;;;;;0.50;99.90;;;;;;5142152;27;19975;-80
2021/12/05 19:18:58;;;;;;;;;;;0.50;99.90;;;;;;5126639;27;20005;-82
2021/12/05 19:21:25;;;;;;;;;;;0.50;99.90;;;;;;5137642;27;19998;-79
2021/12/05 19:23:52;;;;;;;;;;;0.50;99.90;;;;;;5141793;27;19915;-80
2021/12/05 19:26:18;;;;;;;;;;;0.50;99.90;;;;;;5123075;27;19919;-80
2021/12/05 19:28:44;;;;;;;;;;;0.50;99.90;;;;;;5134083;27;20328;-80
2021/12/05 19:31:10;;;;;;;;;;;0.50;99.90;;;;;;5102608;27;19915;-81
2021/12/05 19:33:36;;;;;;;;;;;0.50;99.90;;;;;;5108653;27;19955;-80
2021/12/05 19:36:03;;;;;;;;;;;0.50;99.90;;;;;;5153865;27;19944;-79
2021/12/05 19:38:29;;;;;;;;;;;0.60;99.90;;;;;;5134158;27;20371;-80
2021/12/05 19:40:57;;;;;;;;;;;0.60;99.90;;;;;;5132429;27;20428;-79
2021/12/05 19:43:24;;;;;;;;;;;0.60;99.90;;;;;;5078889;27;19927;-78
2021/12/05 19:45:55;;;;;;;;;;;0.60;99.90;;;;;;5141133;27;20393;-74
2021/12/05 19:48:21;;;;;;;;;;;0.60;99.90;;;;;;5149437;27;20404;-75
2021/12/05 19:50:47;;;;;;;;;;;0.60;99.90;;;;;;5141399;27;19938;-85
2021/12/05 19:53:13;;;;;;;;;;;0.60;99.90;;;;;;5154557;27;19926;-84
2021/12/05 19:55:42;;;;;;;;;;;0.60;99.90;;;;;;5125498;27;19936;-82
2021/12/05 19:58:09;;;;;;;;;;;0.60;99.90;;;;;;5132530;27;19923;-84
2021/12/05 20:00:36;;;;;;;;;;;0.60;99.90;;;;;;5151105;27;19915;-86
2021/12/05 20:03:02;;;;;;;;;;;0.60;99.90;;;;;;5120285;27;19919;-86